sensor_id;sensor_type;location;lat;lon;timestamp;P1;durP1;ratioP1;P2;durP2;ratioP2
73337;SDS011;61575;49.908;35.556;2023-09-19T00:01:36;8.60;;;4.55;;
73337;SDS011;61575;49.908;35.556;2023-09-19T00:04:38;8.95;;;4.80;;
73337;SDS011;61575;49.908;35.556;2023-09-19T00:07:41;8.50;;;5.07;;
73337;SDS011;61575;49.908;35.556;2023-09-19T00:10:43;7.50;;;4.53;;
73337;SDS011;61575;49.908;35.556;2023-09-19T00:13:47;6.80;;;4.25;;
73337;SDS011;61575;49.908;35.556;2023-09-19T00:16:51;7.72;;;4.72;;
73337;SDS011;61575;49.908;35.556;2023-09-19T00:19:53;7.27;;;4.40;;
73337;SDS011;61575;49.908;35.556;2023-09-19T00:22:55;8.20;;;4.70;;
73337;SDS011;61575;49.908;35.556;2023-09-19T00:26:00;8.30;;;4.83;;
73337;SDS011;61575;49.908;35.556;2023-09-19T00:29:02;8.50;;;4.88;;
73337;SDS011;61575;49.908;35.556;2023-09-19T00:32:06;8.50;;;5.15;;
73337;SDS011;61575;49.908;35.556;2023-09-19T00:35:09;8.85;;;4.95;;
73337;SDS011;61575;49.908;35.556;2023-09-19T00:38:12;9.63;;;5.43;;
73337;SDS011;61575;49.908;35.556;2023-09-19T00:41:19;8.07;;;5.07;;
73337;SDS011;61575;49.908;35.556;2023-09-19T00:44:20;8.70;;;5.07;;
73337;SDS011;61575;49.908;35.556;2023-09-19T00:47:24;10.15;;;5.60;;
73337;SDS011;61575;49.908;35.556;2023-09-19T00:50:27;10.02;;;5.70;;
73337;SDS011;61575;49.908;35.556;2023-09-19T00:53:30;8.95;;;5.10;;
73337;SDS011;61575;49.908;35.556;2023-09-19T00:56:32;11.95;;;6.70;;
73337;SDS011;61575;49.908;35.556;2023-09-19T00:59:34;9.50;;;5.87;;
73337;SDS011;61575;49.908;35.556;2023-09-19T01:05:39;10.85;;;6.53;;
73337;SDS011;61575;49.908;35.556;2023-09-19T01:08:41;13.02;;;6.90;;
73337;SDS011;61575;49.908;35.556;2023-09-19T01:11:43;10.75;;;6.43;;
73337;SDS011;61575;49.908;35.556;2023-09-19T01:21:29;14.07;;;7.75;;
73337;SDS011;61575;49.908;35.556;2023-09-19T01:31:59;12.48;;;7.93;;
73337;SDS011;61575;49.908;35.556;2023-09-19T01:35:05;14.43;;;7.47;;
73337;SDS011;61575;49.908;35.556;2023-09-19T01:38:07;15.52;;;8.43;;
73337;SDS011;61575;49.908;35.556;2023-09-19T01:41:12;15.13;;;9.20;;
73337;SDS011;61575;49.908;35.556;2023-09-19T01:44:40;15.05;;;8.43;;
73337;SDS011;61575;49.908;35.556;2023-09-19T01:47:48;16.02;;;9.00;;
73337;SDS011;61575;49.908;35.556;2023-09-19T01:50:59;14.88;;;8.73;;
73337;SDS011;61575;49.908;35.556;2023-09-19T01:54:03;15.35;;;8.45;;
73337;SDS011;61575;49.908;35.556;2023-09-19T01:57:29;14.48;;;7.85;;
73337;SDS011;61575;49.908;35.556;2023-09-19T02:00:36;14.80;;;8.80;;
73337;SDS011;61575;49.908;35.556;2023-09-19T02:03:42;13.70;;;8.18;;
73337;SDS011;61575;49.908;35.556;2023-09-19T02:06:46;18.50;;;9.07;;
73337;SDS011;61575;49.908;35.556;2023-09-19T02:09:51;15.05;;;8.90;;
73337;SDS011;61575;49.908;35.556;2023-09-19T02:12:53;20.40;;;9.25;;
73337;SDS011;61575;49.908;35.556;2023-09-19T02:15:55;15.32;;;8.30;;
73337;SDS011;61575;49.908;35.556;2023-09-19T02:18:57;12.25;;;7.20;;
73337;SDS011;61575;49.908;35.556;2023-09-19T02:22:01;11.93;;;7.10;;
73337;SDS011;61575;49.908;35.556;2023-09-19T02:25:11;12.90;;;7.50;;
73337;SDS011;61575;49.908;35.556;2023-09-19T02:28:15;16.45;;;7.78;;
73337;SDS011;61575;49.908;35.556;2023-09-19T02:31:17;12.10;;;7.03;;
73337;SDS011;61575;49.908;35.556;2023-09-19T02:34:20;12.57;;;7.47;;
73337;SDS011;61575;49.908;35.556;2023-09-19T02:37:22;10.90;;;6.93;;
73337;SDS011;61575;49.908;35.556;2023-09-19T02:40:24;15.10;;;7.68;;
73337;SDS011;61575;49.908;35.556;2023-09-19T02:43:27;11.63;;;6.95;;
73337;SDS011;61575;49.908;35.556;2023-09-19T02:46:29;12.70;;;7.13;;
73337;SDS011;61575;49.908;35.556;2023-09-19T02:49:31;12.15;;;6.82;;
73337;SDS011;61575;49.908;35.556;2023-09-19T02:52:34;16.83;;;7.55;;
73337;SDS011;61575;49.908;35.556;2023-09-19T02:55:36;13.60;;;7.13;;
73337;SDS011;61575;49.908;35.556;2023-09-19T02:58:39;13.23;;;7.85;;
73337;SDS011;61575;49.908;35.556;2023-09-19T03:01:43;12.93;;;7.28;;
73337;SDS011;61575;49.908;35.556;2023-09-19T03:04:45;13.10;;;6.47;;
73337;SDS011;61575;49.908;35.556;2023-09-19T03:07:48;14.57;;;7.28;;
73337;SDS011;61575;49.908;35.556;2023-09-19T03:10:53;12.30;;;7.05;;
73337;SDS011;61575;49.908;35.556;2023-09-19T03:13:55;13.77;;;7.80;;
73337;SDS011;61575;49.908;35.556;2023-09-19T03:16:57;11.27;;;7.35;;
73337;SDS011;61575;49.908;35.556;2023-09-19T03:19:59;10.90;;;6.37;;
73337;SDS011;61575;49.908;35.556;2023-09-19T03:23:02;12.35;;;6.75;;
73337;SDS011;61575;49.908;35.556;2023-09-19T03:26:04;11.90;;;7.20;;
73337;SDS011;61575;49.908;35.556;2023-09-19T03:29:07;11.63;;;6.53;;
73337;SDS011;61575;49.908;35.556;2023-09-19T03:32:12;10.85;;;7.00;;
73337;SDS011;61575;49.908;35.556;2023-09-19T03:35:15;10.38;;;6.78;;
73337;SDS011;61575;49.908;35.556;2023-09-19T03:41:19;10.10;;;5.88;;
73337;SDS011;61575;49.908;35.556;2023-09-19T03:44:22;10.93;;;6.32;;
73337;SDS011;61575;49.908;35.556;2023-09-19T03:47:24;12.00;;;7.00;;
73337;SDS011;61575;49.908;35.556;2023-09-19T03:53:29;11.95;;;6.97;;
73337;SDS011;61575;49.908;35.556;2023-09-19T03:56:31;10.43;;;6.45;;
73337;SDS011;61575;49.908;35.556;2023-09-19T03:59:33;11.67;;;6.33;;
73337;SDS011;61575;49.908;35.556;2023-09-19T04:02:37;12.27;;;6.45;;
73337;SDS011;61575;49.908;35.556;2023-09-19T04:05:40;15.32;;;7.13;;
73337;SDS011;61575;49.908;35.556;2023-09-19T04:08:42;12.37;;;7.60;;
73337;SDS011;61575;49.908;35.556;2023-09-19T04:11:46;14.80;;;7.40;;
73337;SDS011;61575;49.908;35.556;2023-09-19T04:14:48;12.43;;;7.00;;
73337;SDS011;61575;49.908;35.556;2023-09-19T04:17:51;13.13;;;7.68;;
73337;SDS011;61575;49.908;35.556;2023-09-19T04:20:53;13.90;;;7.00;;
73337;SDS011;61575;49.908;35.556;2023-09-19T04:23:56;12.18;;;7.90;;
73337;SDS011;61575;49.908;35.556;2023-09-19T04:26:58;16.17;;;8.77;;
73337;SDS011;61575;49.908;35.556;2023-09-19T04:33:07;14.23;;;8.70;;
73337;SDS011;61575;49.908;35.556;2023-09-19T04:39:31;16.25;;;8.15;;
73337;SDS011;61575;49.908;35.556;2023-09-19T04:42:33;12.68;;;8.00;;
73337;SDS011;61575;49.908;35.556;2023-09-19T04:45:35;14.82;;;9.15;;
73337;SDS011;61575;49.908;35.556;2023-09-19T04:48:40;15.55;;;8.95;;
73337;SDS011;61575;49.908;35.556;2023-09-19T04:51:43;16.38;;;8.65;;
73337;SDS011;61575;49.908;35.556;2023-09-19T04:54:44;13.25;;;8.52;;
73337;SDS011;61575;49.908;35.556;2023-09-19T04:57:48;13.82;;;8.07;;
73337;SDS011;61575;49.908;35.556;2023-09-19T05:00:51;15.63;;;8.35;;
73337;SDS011;61575;49.908;35.556;2023-09-19T05:03:53;13.23;;;7.80;;
73337;SDS011;61575;49.908;35.556;2023-09-19T05:06:55;12.82;;;6.90;;
73337;SDS011;61575;49.908;35.556;2023-09-19T05:09:57;13.70;;;8.23;;
73337;SDS011;61575;49.908;35.556;2023-09-19T05:12:59;15.07;;;8.30;;
73337;SDS011;61575;49.908;35.556;2023-09-19T05:16:02;12.52;;;7.90;;
73337;SDS011;61575;49.908;35.556;2023-09-19T05:19:04;14.50;;;7.68;;
73337;SDS011;61575;49.908;35.556;2023-09-19T05:22:06;15.63;;;8.88;;
73337;SDS011;61575;49.908;35.556;2023-09-19T05:25:12;16.20;;;9.93;;
73337;SDS011;61575;49.908;35.556;2023-09-19T05:28:20;17.80;;;9.82;;
73337;SDS011;61575;49.908;35.556;2023-09-19T05:31:22;17.43;;;9.57;;
73337;SDS011;61575;49.908;35.556;2023-09-19T05:34:28;15.75;;;8.65;;
73337;SDS011;61575;49.908;35.556;2023-09-19T05:37:35;13.65;;;8.32;;
73337;SDS011;61575;49.908;35.556;2023-09-19T05:40:38;13.65;;;8.15;;
73337;SDS011;61575;49.908;35.556;2023-09-19T05:43:42;13.25;;;7.03;;
73337;SDS011;61575;49.908;35.556;2023-09-19T05:46:45;10.45;;;6.70;;
73337;SDS011;61575;49.908;35.556;2023-09-19T05:49:49;12.60;;;7.10;;
73337;SDS011;61575;49.908;35.556;2023-09-19T05:52:52;18.00;;;8.82;;
73337;SDS011;61575;49.908;35.556;2023-09-19T05:55:55;14.48;;;8.18;;
73337;SDS011;61575;49.908;35.556;2023-09-19T05:58:57;14.80;;;9.05;;
73337;SDS011;61575;49.908;35.556;2023-09-19T06:01:59;16.55;;;9.23;;
73337;SDS011;61575;49.908;35.556;2023-09-19T06:08:04;18.80;;;11.40;;
73337;SDS011;61575;49.908;35.556;2023-09-19T06:11:09;20.27;;;12.10;;
73337;SDS011;61575;49.908;35.556;2023-09-19T06:17:14;19.33;;;11.32;;
73337;SDS011;61575;49.908;35.556;2023-09-19T06:23:19;18.57;;;10.40;;
73337;SDS011;61575;49.908;35.556;2023-09-19T06:26:22;17.23;;;9.77;;
73337;SDS011;61575;49.908;35.556;2023-09-19T06:32:28;17.73;;;10.25;;
73337;SDS011;61575;49.908;35.556;2023-09-19T06:35:31;17.60;;;9.93;;
73337;SDS011;61575;49.908;35.556;2023-09-19T06:38:34;18.00;;;10.68;;
73337;SDS011;61575;49.908;35.556;2023-09-19T06:41:37;16.35;;;9.45;;
73337;SDS011;61575;49.908;35.556;2023-09-19T06:44:44;16.15;;;10.00;;
73337;SDS011;61575;49.908;35.556;2023-09-19T06:47:46;15.15;;;9.52;;
73337;SDS011;61575;49.908;35.556;2023-09-19T06:50:53;14.82;;;9.02;;
73337;SDS011;61575;49.908;35.556;2023-09-19T06:53:56;16.23;;;9.35;;
73337;SDS011;61575;49.908;35.556;2023-09-19T06:57:00;15.65;;;9.25;;
73337;SDS011;61575;49.908;35.556;2023-09-19T07:00:02;14.98;;;9.00;;
73337;SDS011;61575;49.908;35.556;2023-09-19T07:03:06;15.98;;;8.93;;
73337;SDS011;61575;49.908;35.556;2023-09-19T07:06:10;14.55;;;9.10;;
73337;SDS011;61575;49.908;35.556;2023-09-19T07:09:12;14.75;;;8.82;;
73337;SDS011;61575;49.908;35.556;2023-09-19T07:12:14;15.32;;;9.10;;
73337;SDS011;61575;49.908;35.556;2023-09-19T07:18:18;12.38;;;7.95;;
73337;SDS011;61575;49.908;35.556;2023-09-19T07:24:23;13.05;;;7.50;;
73337;SDS011;61575;49.908;35.556;2023-09-19T07:27:25;11.63;;;7.70;;
73337;SDS011;61575;49.908;35.556;2023-09-19T07:30:27;11.77;;;7.65;;
73337;SDS011;61575;49.908;35.556;2023-09-19T07:33:30;11.73;;;7.70;;
73337;SDS011;61575;49.908;35.556;2023-09-19T07:36:33;13.15;;;7.68;;
73337;SDS011;61575;49.908;35.556;2023-09-19T07:39:36;12.27;;;7.10;;
73337;SDS011;61575;49.908;35.556;2023-09-19T07:42:38;13.23;;;7.55;;
73337;SDS011;61575;49.908;35.556;2023-09-19T07:45:42;11.75;;;7.70;;
73337;SDS011;61575;49.908;35.556;2023-09-19T07:48:44;12.50;;;7.65;;
73337;SDS011;61575;49.908;35.556;2023-09-19T07:51:50;12.38;;;8.30;;
73337;SDS011;61575;49.908;35.556;2023-09-19T07:54:54;12.77;;;7.50;;
73337;SDS011;61575;49.908;35.556;2023-09-19T07:57:58;12.13;;;7.80;;
73337;SDS011;61575;49.908;35.556;2023-09-19T08:01:07;11.75;;;7.43;;
73337;SDS011;61575;49.908;35.556;2023-09-19T08:04:15;10.05;;;6.57;;
73337;SDS011;61575;49.908;35.556;2023-09-19T08:10:19;9.70;;;6.72;;
73337;SDS011;61575;49.908;35.556;2023-09-19T08:13:23;11.25;;;7.40;;
73337;SDS011;61575;49.908;35.556;2023-09-19T08:16:26;10.27;;;7.10;;
73337;SDS011;61575;49.908;35.556;2023-09-19T08:22:31;11.07;;;6.93;;
73337;SDS011;61575;49.908;35.556;2023-09-19T08:25:34;11.50;;;6.85;;
73337;SDS011;61575;49.908;35.556;2023-09-19T08:28:36;10.00;;;6.78;;
73337;SDS011;61575;49.908;35.556;2023-09-19T08:31:38;9.77;;;6.40;;
73337;SDS011;61575;49.908;35.556;2023-09-19T08:34:40;9.13;;;6.07;;
73337;SDS011;61575;49.908;35.556;2023-09-19T08:37:43;9.43;;;5.95;;
73337;SDS011;61575;49.908;35.556;2023-09-19T08:40:47;9.98;;;6.53;;
73337;SDS011;61575;49.908;35.556;2023-09-19T08:47:09;7.90;;;5.18;;
73337;SDS011;61575;49.908;35.556;2023-09-19T08:50:19;9.15;;;5.07;;
73337;SDS011;61575;49.908;35.556;2023-09-19T08:56:53;7.05;;;4.28;;
73337;SDS011;61575;49.908;35.556;2023-09-19T08:59:56;8.02;;;4.20;;
73337;SDS011;61575;49.908;35.556;2023-09-19T09:03:00;6.05;;;3.75;;
73337;SDS011;61575;49.908;35.556;2023-09-19T09:06:04;6.95;;;4.45;;
73337;SDS011;61575;49.908;35.556;2023-09-19T09:09:07;6.20;;;3.90;;
73337;SDS011;61575;49.908;35.556;2023-09-19T09:12:14;5.88;;;3.80;;
73337;SDS011;61575;49.908;35.556;2023-09-19T09:15:18;8.10;;;3.88;;
73337;SDS011;61575;49.908;35.556;2023-09-19T09:18:22;8.27;;;3.58;;
73337;SDS011;61575;49.908;35.556;2023-09-19T09:21:25;6.05;;;3.95;;
73337;SDS011;61575;49.908;35.556;2023-09-19T09:24:28;5.18;;;3.55;;
73337;SDS011;61575;49.908;35.556;2023-09-19T09:27:31;6.28;;;3.88;;
73337;SDS011;61575;49.908;35.556;2023-09-19T09:30:36;5.60;;;3.80;;
73337;SDS011;61575;49.908;35.556;2023-09-19T09:33:41;5.35;;;3.90;;
73337;SDS011;61575;49.908;35.556;2023-09-19T09:36:53;5.97;;;3.88;;
73337;SDS011;61575;49.908;35.556;2023-09-19T09:43:00;5.40;;;3.15;;
73337;SDS011;61575;49.908;35.556;2023-09-19T09:46:09;4.97;;;3.22;;
73337;SDS011;61575;49.908;35.556;2023-09-19T09:49:23;4.93;;;3.17;;
73337;SDS011;61575;49.908;35.556;2023-09-19T09:52:31;5.83;;;3.03;;
73337;SDS011;61575;49.908;35.556;2023-09-19T09:56:02;5.43;;;3.35;;
73337;SDS011;61575;49.908;35.556;2023-09-19T09:59:07;5.35;;;3.53;;
73337;SDS011;61575;49.908;35.556;2023-09-19T10:02:09;6.53;;;3.50;;
73337;SDS011;61575;49.908;35.556;2023-09-19T10:05:19;5.78;;;3.47;;
73337;SDS011;61575;49.908;35.556;2023-09-19T10:08:22;6.25;;;3.63;;
73337;SDS011;61575;49.908;35.556;2023-09-19T10:11:24;5.20;;;3.28;;
73337;SDS011;61575;49.908;35.556;2023-09-19T10:14:33;5.28;;;3.60;;
73337;SDS011;61575;49.908;35.556;2023-09-19T10:17:39;4.80;;;3.22;;
73337;SDS011;61575;49.908;35.556;2023-09-19T10:20:45;7.00;;;3.58;;
73337;SDS011;61575;49.908;35.556;2023-09-19T10:23:50;5.18;;;3.28;;
73337;SDS011;61575;49.908;35.556;2023-09-19T10:26:59;5.88;;;3.58;;
73337;SDS011;61575;49.908;35.556;2023-09-19T10:30:02;6.18;;;3.42;;
73337;SDS011;61575;49.908;35.556;2023-09-19T10:33:09;5.50;;;3.40;;
73337;SDS011;61575;49.908;35.556;2023-09-19T10:36:11;5.20;;;3.60;;
73337;SDS011;61575;49.908;35.556;2023-09-19T10:39:14;5.07;;;3.53;;
73337;SDS011;61575;49.908;35.556;2023-09-19T10:42:20;5.45;;;3.35;;
73337;SDS011;61575;49.908;35.556;2023-09-19T10:45:30;5.60;;;3.65;;
73337;SDS011;61575;49.908;35.556;2023-09-19T10:48:33;5.35;;;3.38;;
73337;SDS011;61575;49.908;35.556;2023-09-19T10:51:41;6.70;;;3.45;;
73337;SDS011;61575;49.908;35.556;2023-09-19T10:54:48;5.43;;;3.20;;
73337;SDS011;61575;49.908;35.556;2023-09-19T10:57:52;5.18;;;3.45;;
73337;SDS011;61575;49.908;35.556;2023-09-19T11:00:56;5.80;;;3.60;;
73337;SDS011;61575;49.908;35.556;2023-09-19T11:04:21;6.45;;;3.85;;
73337;SDS011;61575;49.908;35.556;2023-09-19T11:07:31;6.78;;;3.80;;
73337;SDS011;61575;49.908;35.556;2023-09-19T11:10:56;5.85;;;3.70;;
73337;SDS011;61575;49.908;35.556;2023-09-19T11:17:40;6.35;;;3.70;;
73337;SDS011;61575;49.908;35.556;2023-09-19T11:20:43;7.13;;;4.15;;
73337;SDS011;61575;49.908;35.556;2023-09-19T11:27:38;5.28;;;3.45;;
73337;SDS011;61575;49.908;35.556;2023-09-19T11:34:41;5.93;;;3.88;;
73337;SDS011;61575;49.908;35.556;2023-09-19T11:41:36;6.78;;;3.80;;
73337;SDS011;61575;49.908;35.556;2023-09-19T11:44:32;6.75;;;3.88;;
73337;SDS011;61575;49.908;35.556;2023-09-19T11:47:36;5.75;;;3.88;;
73337;SDS011;61575;49.908;35.556;2023-09-19T11:50:39;5.72;;;3.25;;
73337;SDS011;61575;49.908;35.556;2023-09-19T11:53:48;6.55;;;3.58;;
73337;SDS011;61575;49.908;35.556;2023-09-19T11:56:51;5.28;;;3.40;;
73337;SDS011;61575;49.908;35.556;2023-09-19T11:59:55;6.50;;;3.60;;
73337;SDS011;61575;49.908;35.556;2023-09-19T12:03:00;5.90;;;3.63;;
73337;SDS011;61575;49.908;35.556;2023-09-19T12:06:12;5.07;;;3.38;;
73337;SDS011;61575;49.908;35.556;2023-09-19T12:09:19;7.50;;;3.83;;
73337;SDS011;61575;49.908;35.556;2023-09-19T12:12:28;5.90;;;3.35;;
73337;SDS011;61575;49.908;35.556;2023-09-19T12:15:31;5.68;;;3.80;;
73337;SDS011;61575;49.908;35.556;2023-09-19T12:18:40;5.53;;;3.53;;
73337;SDS011;61575;49.908;35.556;2023-09-19T12:21:50;5.35;;;3.58;;
73337;SDS011;61575;49.908;35.556;2023-09-19T12:25:02;5.85;;;3.47;;
73337;SDS011;61575;49.908;35.556;2023-09-19T12:28:08;5.30;;;3.20;;
73337;SDS011;61575;49.908;35.556;2023-09-19T12:31:11;5.72;;;3.50;;
73337;SDS011;61575;49.908;35.556;2023-09-19T12:34:16;8.13;;;3.70;;
73337;SDS011;61575;49.908;35.556;2023-09-19T12:37:21;7.50;;;3.60;;
73337;SDS011;61575;49.908;35.556;2023-09-19T12:40:24;5.70;;;3.20;;
73337;SDS011;61575;49.908;35.556;2023-09-19T12:43:31;5.22;;;3.03;;
73337;SDS011;61575;49.908;35.556;2023-09-19T12:46:35;5.57;;;3.22;;
73337;SDS011;61575;49.908;35.556;2023-09-19T12:50:04;5.20;;;3.00;;
73337;SDS011;61575;49.908;35.556;2023-09-19T12:53:26;5.13;;;3.33;;
73337;SDS011;61575;49.908;35.556;2023-09-19T12:56:39;6.28;;;2.97;;
73337;SDS011;61575;49.908;35.556;2023-09-19T12:59:46;5.00;;;3.25;;
73337;SDS011;61575;49.908;35.556;2023-09-19T13:06:36;6.15;;;3.60;;
73337;SDS011;61575;49.908;35.556;2023-09-19T13:09:40;5.47;;;3.42;;
73337;SDS011;61575;49.908;35.556;2023-09-19T13:13:22;6.07;;;3.30;;
73337;SDS011;61575;49.908;35.556;2023-09-19T13:16:29;8.25;;;3.60;;
73337;SDS011;61575;49.908;35.556;2023-09-19T13:22:55;7.15;;;3.38;;
73337;SDS011;61575;49.908;35.556;2023-09-19T13:26:01;5.25;;;3.40;;
73337;SDS011;61575;49.908;35.556;2023-09-19T13:29:03;8.43;;;3.53;;
73337;SDS011;61575;49.908;35.556;2023-09-19T13:32:05;5.30;;;3.38;;
73337;SDS011;61575;49.908;35.556;2023-09-19T13:38:14;8.90;;;3.38;;
73337;SDS011;61575;49.908;35.556;2023-09-19T13:41:16;4.95;;;3.25;;
73337;SDS011;61575;49.908;35.556;2023-09-19T13:47:20;5.47;;;3.42;;
73337;SDS011;61575;49.908;35.556;2023-09-19T13:50:26;5.20;;;3.35;;
73337;SDS011;61575;49.908;35.556;2023-09-19T13:53:30;5.70;;;3.35;;
73337;SDS011;61575;49.908;35.556;2023-09-19T13:56:32;4.97;;;3.25;;
73337;SDS011;61575;49.908;35.556;2023-09-19T13:59:35;5.22;;;3.13;;
73337;SDS011;61575;49.908;35.556;2023-09-19T14:02:40;5.63;;;3.63;;
73337;SDS011;61575;49.908;35.556;2023-09-19T14:05:43;5.65;;;3.83;;
73337;SDS011;61575;49.908;35.556;2023-09-19T14:11:51;6.90;;;3.80;;
73337;SDS011;61575;49.908;35.556;2023-09-19T14:14:54;6.90;;;3.42;;
73337;SDS011;61575;49.908;35.556;2023-09-19T14:17:57;6.97;;;3.70;;
73337;SDS011;61575;49.908;35.556;2023-09-19T14:21:04;6.57;;;4.03;;
73337;SDS011;61575;49.908;35.556;2023-09-19T14:24:07;5.82;;;3.63;;
73337;SDS011;61575;49.908;35.556;2023-09-19T14:27:13;6.60;;;3.63;;
73337;SDS011;61575;49.908;35.556;2023-09-19T14:30:15;6.05;;;4.03;;
73337;SDS011;61575;49.908;35.556;2023-09-19T14:33:17;6.95;;;4.00;;
73337;SDS011;61575;49.908;35.556;2023-09-19T14:36:19;6.70;;;3.70;;
73337;SDS011;61575;49.908;35.556;2023-09-19T14:39:22;7.45;;;4.00;;
73337;SDS011;61575;49.908;35.556;2023-09-19T14:42:25;7.97;;;4.10;;
73337;SDS011;61575;49.908;35.556;2023-09-19T14:45:28;7.65;;;4.00;;
73337;SDS011;61575;49.908;35.556;2023-09-19T14:48:33;8.82;;;4.20;;
73337;SDS011;61575;49.908;35.556;2023-09-19T14:51:39;8.05;;;3.80;;
73337;SDS011;61575;49.908;35.556;2023-09-19T14:54:41;6.47;;;3.40;;
73337;SDS011;61575;49.908;35.556;2023-09-19T15:00:50;6.32;;;3.72;;
73337;SDS011;61575;49.908;35.556;2023-09-19T15:03:53;8.55;;;4.05;;
73337;SDS011;61575;49.908;35.556;2023-09-19T15:06:57;6.90;;;3.97;;
73337;SDS011;61575;49.908;35.556;2023-09-19T15:09:59;6.80;;;3.75;;
73337;SDS011;61575;49.908;35.556;2023-09-19T15:13:01;6.13;;;3.90;;
73337;SDS011;61575;49.908;35.556;2023-09-19T15:16:07;20.52;;;5.38;;
73337;SDS011;61575;49.908;35.556;2023-09-19T15:19:12;9.75;;;4.28;;
73337;SDS011;61575;49.908;35.556;2023-09-19T15:22:14;19.55;;;4.70;;
73337;SDS011;61575;49.908;35.556;2023-09-19T15:25:16;17.52;;;4.65;;
73337;SDS011;61575;49.908;35.556;2023-09-19T15:28:18;16.27;;;5.07;;
73337;SDS011;61575;49.908;35.556;2023-09-19T15:31:20;9.95;;;4.50;;
73337;SDS011;61575;49.908;35.556;2023-09-19T15:34:22;11.45;;;5.38;;
73337;SDS011;61575;49.908;35.556;2023-09-19T15:37:24;9.63;;;5.35;;
73337;SDS011;61575;49.908;35.556;2023-09-19T15:40:27;13.80;;;6.55;;
73337;SDS011;61575;49.908;35.556;2023-09-19T15:43:30;24.17;;;10.63;;
73337;SDS011;61575;49.908;35.556;2023-09-19T15:46:35;34.45;;;13.48;;
73337;SDS011;61575;49.908;35.556;2023-09-19T15:49:37;32.70;;;14.27;;
73337;SDS011;61575;49.908;35.556;2023-09-19T15:55:42;40.22;;;16.58;;
73337;SDS011;61575;49.908;35.556;2023-09-19T15:58:46;41.55;;;17.27;;
73337;SDS011;61575;49.908;35.556;2023-09-19T16:01:49;33.63;;;15.88;;
73337;SDS011;61575;49.908;35.556;2023-09-19T16:04:54;22.95;;;12.23;;
73337;SDS011;61575;49.908;35.556;2023-09-19T16:07:56;25.27;;;12.65;;
73337;SDS011;61575;49.908;35.556;2023-09-19T16:10:58;26.10;;;14.27;;
73337;SDS011;61575;49.908;35.556;2023-09-19T16:14:00;33.63;;;14.52;;
73337;SDS011;61575;49.908;35.556;2023-09-19T16:17:03;71.40;;;36.55;;
73337;SDS011;61575;49.908;35.556;2023-09-19T16:20:06;117.72;;;55.58;;
73337;SDS011;61575;49.908;35.556;2023-09-19T16:23:13;132.38;;;68.22;;
73337;SDS011;61575;49.908;35.556;2023-09-19T16:26:16;127.28;;;66.35;;
73337;SDS011;61575;49.908;35.556;2023-09-19T16:29:19;195.52;;;98.95;;
73337;SDS011;61575;49.908;35.556;2023-09-19T16:32:23;172.32;;;88.60;;
73337;SDS011;61575;49.908;35.556;2023-09-19T16:35:25;137.85;;;71.05;;
73337;SDS011;61575;49.908;35.556;2023-09-19T16:38:27;126.38;;;65.18;;
73337;SDS011;61575;49.908;35.556;2023-09-19T16:41:30;115.82;;;62.40;;
73337;SDS011;61575;49.908;35.556;2023-09-19T16:44:32;116.78;;;61.05;;
73337;SDS011;61575;49.908;35.556;2023-09-19T16:47:34;124.88;;;59.33;;
73337;SDS011;61575;49.908;35.556;2023-09-19T16:50:36;128.90;;;58.45;;
73337;SDS011;61575;49.908;35.556;2023-09-19T16:53:40;105.78;;;50.15;;
73337;SDS011;61575;49.908;35.556;2023-09-19T16:56:47;93.00;;;43.53;;
73337;SDS011;61575;49.908;35.556;2023-09-19T16:59:49;95.18;;;44.53;;
73337;SDS011;61575;49.908;35.556;2023-09-19T17:02:51;82.28;;;39.50;;
73337;SDS011;61575;49.908;35.556;2023-09-19T17:05:59;88.88;;;40.10;;
73337;SDS011;61575;49.908;35.556;2023-09-19T17:09:01;61.47;;;30.00;;
73337;SDS011;61575;49.908;35.556;2023-09-19T17:12:05;75.72;;;35.13;;
73337;SDS011;61575;49.908;35.556;2023-09-19T17:15:08;73.75;;;32.92;;
73337;SDS011;61575;49.908;35.556;2023-09-19T17:18:10;74.40;;;33.85;;
73337;SDS011;61575;49.908;35.556;2023-09-19T17:21:11;89.35;;;36.38;;
73337;SDS011;61575;49.908;35.556;2023-09-19T17:24:15;89.18;;;37.75;;
73337;SDS011;61575;49.908;35.556;2023-09-19T17:27:17;94.47;;;37.72;;
73337;SDS011;61575;49.908;35.556;2023-09-19T17:30:19;81.45;;;34.65;;
73337;SDS011;61575;49.908;35.556;2023-09-19T17:33:24;66.57;;;29.40;;
73337;SDS011;61575;49.908;35.556;2023-09-19T17:36:27;52.33;;;26.08;;
73337;SDS011;61575;49.908;35.556;2023-09-19T17:39:33;48.47;;;23.88;;
73337;SDS011;61575;49.908;35.556;2023-09-19T17:42:36;39.30;;;20.40;;
73337;SDS011;61575;49.908;35.556;2023-09-19T17:45:44;36.13;;;18.02;;
73337;SDS011;61575;49.908;35.556;2023-09-19T17:48:48;28.33;;;15.55;;
73337;SDS011;61575;49.908;35.556;2023-09-19T17:51:51;28.20;;;14.88;;
73337;SDS011;61575;49.908;35.556;2023-09-19T17:54:53;30.38;;;14.90;;
73337;SDS011;61575;49.908;35.556;2023-09-19T17:57:55;28.95;;;13.68;;
73337;SDS011;61575;49.908;35.556;2023-09-19T18:04:14;23.73;;;12.75;;
73337;SDS011;61575;49.908;35.556;2023-09-19T18:07:16;23.65;;;12.63;;
73337;SDS011;61575;49.908;35.556;2023-09-19T18:10:18;23.17;;;13.20;;
73337;SDS011;61575;49.908;35.556;2023-09-19T18:13:20;20.50;;;11.70;;
73337;SDS011;61575;49.908;35.556;2023-09-19T18:16:23;24.55;;;12.80;;
73337;SDS011;61575;49.908;35.556;2023-09-19T18:19:29;22.27;;;12.98;;
73337;SDS011;61575;49.908;35.556;2023-09-19T18:22:31;19.27;;;10.98;;
73337;SDS011;61575;49.908;35.556;2023-09-19T18:25:35;18.17;;;9.98;;
73337;SDS011;61575;49.908;35.556;2023-09-19T18:28:39;21.45;;;11.60;;
73337;SDS011;61575;49.908;35.556;2023-09-19T18:34:43;19.30;;;10.43;;
73337;SDS011;61575;49.908;35.556;2023-09-19T18:37:45;19.20;;;10.02;;
73337;SDS011;61575;49.908;35.556;2023-09-19T18:40:50;17.40;;;9.70;;
73337;SDS011;61575;49.908;35.556;2023-09-19T18:43:52;14.65;;;9.35;;
73337;SDS011;61575;49.908;35.556;2023-09-19T18:46:54;16.70;;;8.70;;
73337;SDS011;61575;49.908;35.556;2023-09-19T18:49:57;14.38;;;8.25;;
73337;SDS011;61575;49.908;35.556;2023-09-19T18:52:59;18.67;;;9.63;;
73337;SDS011;61575;49.908;35.556;2023-09-19T18:59:04;16.10;;;7.97;;
73337;SDS011;61575;49.908;35.556;2023-09-19T19:02:07;17.88;;;8.43;;
73337;SDS011;61575;49.908;35.556;2023-09-19T19:05:11;15.82;;;8.95;;
73337;SDS011;61575;49.908;35.556;2023-09-19T19:08:14;18.52;;;9.27;;
73337;SDS011;61575;49.908;35.556;2023-09-19T19:11:17;14.32;;;8.35;;
73337;SDS011;61575;49.908;35.556;2023-09-19T19:14:22;14.73;;;8.73;;
73337;SDS011;61575;49.908;35.556;2023-09-19T19:17:24;20.83;;;10.27;;
73337;SDS011;61575;49.908;35.556;2023-09-19T19:20:26;17.05;;;9.23;;
73337;SDS011;61575;49.908;35.556;2023-09-19T19:23:28;19.08;;;10.00;;
73337;SDS011;61575;49.908;35.556;2023-09-19T19:26:30;19.27;;;10.05;;
73337;SDS011;61575;49.908;35.556;2023-09-19T19:29:32;18.73;;;9.93;;
73337;SDS011;61575;49.908;35.556;2023-09-19T19:32:36;16.80;;;10.10;;
73337;SDS011;61575;49.908;35.556;2023-09-19T19:35:38;18.77;;;10.35;;
73337;SDS011;61575;49.908;35.556;2023-09-19T19:38:44;15.70;;;9.45;;
73337;SDS011;61575;49.908;35.556;2023-09-19T19:41:47;20.48;;;10.77;;
73337;SDS011;61575;49.908;35.556;2023-09-19T19:44:49;15.57;;;9.35;;
73337;SDS011;61575;49.908;35.556;2023-09-19T19:47:55;16.70;;;8.77;;
73337;SDS011;61575;49.908;35.556;2023-09-19T19:50:58;17.17;;;9.77;;